NCAR-RAP Real-Time Weather Data

Output produced by METARs form (17 December 2018  14:09 UTC)
found at http://weather.rap.ucar.edu/surface/
 
RJKA 171000Z 34010KT 310V010 9999 FEW040 16/07 Q1019
RJKA 170900Z 34011KT 9999 FEW040 SCT045 16/08 Q1018
RJKA 170800Z 32011KT 280V360 9999 FEW040 SCT045 17/07 Q1018
RJKA 170700Z 31016KT 270V340 9999 FEW040 18/08 Q1017
RJKA 170600Z 32016KT 280V350 9999 FEW040 19/10 Q1016
RJKA 170500Z 32014KT 290V360 9999 FEW035 SCT040 BKN/// 19/11 Q1016
RJKA 170400Z 34011G24KT 290V010 9999 FEW035 SCT040 19/12 Q1016
RJKA 170300Z 34010KT 9999 FEW035 SCT040 BKN060 19/12 Q1017
RJKA 170200Z 35010KT 9999 FEW030 SCT035 BKN050 19/12 Q1017
RJKA 170100Z 34009KT 300V360 9999 -SHRA FEW025 SCT030 BKN045 18/14 Q1017
RJKA 170000Z 34013KT 9999 FEW030 SCT035 BKN070 18/13 Q1016
RJKA 162300Z 34012KT 9999 -SHRA FEW020 BKN030 BKN045 17/14 Q1015
RJKA 162212Z 34014KT 9999 -SHRA FEW010 BKN030 BKN060 16/15 Q1015 RMK 1CU010 5CU030 7SC060 A2997
RJKA 162200Z 35011KT 4500 -SHRA FEW010 BKN020 BKN035 17/16 Q1015
RJKA 162142Z 34010KT 3000 SHRA FEW015 BKN025 BKN035 17/16 Q1014 RMK 1CU015 5CU025 7CU035 A2997
RJKA 162130Z 31013KT 5000 -SHRA FEW025 SCT030 BKN045 17/15 Q1014
RJKA 161000Z 26005KT 9999 FEW020 19/16 Q1015
RJKA 160900Z 26004KT 9999 FEW020 SCT110 19/16 Q1016
RJKA 160800Z 29002KT 9999 FEW030 SCT070 BKN/// 19/17 Q1016
RJKA 160700Z 27004KT 9999 FEW020 SCT035 BKN080 20/17 Q1016
RJKA 160600Z 23009KT 9999 FEW013 SCT040 BKN080 19/17 Q1017
RJKA 160500Z 20009KT 9999 FEW010 BKN015 BKN020 19/17 Q1017
RJKA 160400Z 18012KT 6000 -SHRA FEW010 BKN020 BKN025 18/17 Q1018
RJKA 160334Z 16012KT 4500 -SHRA FEW010 SCT020 BKN040 19/17 Q1019 RMK 1CU010 3CU020 6CU040 A3009
RJKA 160300Z 16012KT 9999 FEW010 SCT040 BKN060 19/16 Q1019
RJKA 160200Z 17014KT 9999 -SHRA FEW010 BKN035 BKN070 18/15 Q1021
RJKA 160100Z 20018KT 6000 -SHRA FEW020 SCT030 BKN050 18/16 Q1022
RJKA 160000Z 15004KT 120V180 9999 -SHRA FEW020 SCT030 BKN050 18/15 Q1021
RJKA 152331Z 13006KT 040V190 9999 -SHRA FEW025 BKN030 BKN035 19/15 Q1021 RMK 1CU025 5CU030 7CU035 A3017
RJKA 151000Z 32004KT 9999 FEW035 SCT050 BKN/// 17/11 Q1025
RJKA 150900Z 03007KT 9999 FEW035 BKN/// 17/10 Q1024
RJKA 150800Z 03006KT 9999 FEW035 SCT045 18/11 Q1024
RJKA 150700Z 06008KT 9999 FEW040 SCT045 18/09 Q1024
RJKA 150600Z 06005KT 9999 FEW040 19/10 Q1024
RJKA 150500Z 04008KT 360V070 9999 FEW040 18/08 Q1025
RJKA 150400Z 06011KT 9999 FEW040 SCT045 19/09 Q1025
RJKA 150300Z 05011KT 010V070 9999 FEW035 SCT040 19/09 Q1026